createdAt,value
2023-03-03T00:01:26.061Z,34.15
2023-03-03T00:03:52.794Z,47.75
2023-03-03T00:06:20.383Z,48.55
2023-03-03T00:08:46.692Z,41.00
2023-03-03T00:11:13.319Z,61.97
2023-03-03T00:13:45.835Z,34.58
2023-03-03T00:16:25.224Z,32.85
2023-03-03T00:18:53.061Z,39.00
2023-03-03T00:21:25.579Z,73.25
2023-03-03T00:23:52.732Z,42.72
2023-03-03T00:26:39.355Z,21.88
2023-03-03T00:29:31.883Z,72.90
2023-03-03T00:32:19.204Z,33.25
2023-03-03T00:34:46.142Z,19.33
2023-03-03T00:37:31.693Z,16.88
2023-03-03T00:40:23.934Z,18.42
2023-03-03T00:42:55.508Z,17.45
2023-03-03T00:45:30.817Z,18.55
2023-03-03T00:47:58.814Z,16.85
2023-03-03T00:50:27.470Z,17.42
2023-03-03T00:53:01.520Z,18.45
2023-03-03T00:55:28.759Z,18.13
2023-03-03T00:57:55.278Z,18.42
2023-03-03T01:00:26.615Z,20.48
2023-03-03T01:02:53.299Z,25.15
2023-03-03T01:05:21.082Z,22.80
2023-03-03T01:07:48.217Z,22.83
2023-03-03T01:10:14.614Z,24.25
2023-03-03T01:12:41.316Z,28.00
2023-03-03T01:15:10.722Z,30.80
2023-03-03T01:17:38.502Z,27.95
2023-03-03T01:20:05.202Z,21.30
2023-03-03T01:22:31.591Z,17.63
2023-03-03T01:24:59.962Z,19.80
2023-03-03T01:27:28.467Z,19.40
2023-03-03T01:29:56.496Z,18.05
2023-03-03T01:32:24.490Z,18.77
2023-03-03T01:34:51.082Z,16.42
2023-03-03T01:37:17.454Z,17.50
2023-03-03T01:39:48.346Z,17.02
2023-03-03T01:42:15.690Z,18.20
2023-03-03T01:44:43.988Z,19.92
2023-03-03T01:47:25.436Z,18.92
2023-03-03T01:49:58.503Z,17.98
2023-03-03T01:52:30.374Z,19.20
2023-03-03T01:55:02.536Z,18.92
2023-03-03T01:57:33.614Z,18.75
2023-03-03T02:00:02.269Z,19.23
2023-03-03T02:02:41.709Z,19.40
2023-03-03T02:05:08.637Z,19.00
2023-03-03T02:07:36.077Z,19.90
2023-03-03T02:10:08.952Z,19.98
2023-03-03T02:12:45.343Z,20.77
2023-03-03T02:15:22.436Z,19.27
2023-03-03T02:17:53.480Z,25.55
2023-03-03T02:20:38.238Z,26.33
2023-03-03T02:23:29.466Z,24.90
2023-03-03T02:25:58.727Z,25.33
2023-03-03T02:28:35.179Z,25.75
2023-03-03T02:31:08.332Z,24.73
2023-03-03T02:33:34.731Z,23.42
2023-03-03T02:36:01.073Z,23.10
2023-03-03T02:38:36.401Z,20.33
2023-03-03T02:41:27.934Z,19.75
2023-03-03T02:44:07.731Z,20.15
2023-03-03T02:46:37.202Z,19.25
2023-03-03T02:49:05.314Z,19.77
2023-03-03T02:51:32.316Z,18.95
2023-03-03T02:53:58.677Z,18.45
2023-03-03T02:56:28.035Z,18.73
2023-03-03T02:58:54.526Z,19.45
2023-03-03T03:01:21.510Z,18.70
2023-03-03T03:03:48.904Z,21.42
2023-03-03T03:06:19.548Z,19.63
2023-03-03T03:08:46.794Z,19.02
2023-03-03T03:11:13.169Z,17.80
2023-03-03T03:13:40.028Z,18.80
2023-03-03T03:16:06.987Z,18.90
2023-03-03T03:18:33.311Z,19.35
2023-03-03T03:21:11.669Z,17.95
2023-03-03T03:23:39.873Z,17.38
2023-03-03T03:26:07.535Z,16.20
2023-03-03T03:28:34.650Z,16.20
2023-03-03T03:31:02.205Z,16.83
2023-03-03T03:33:28.654Z,16.95
2023-03-03T03:35:56.835Z,17.58
2023-03-03T03:38:26.818Z,16.88
2023-03-03T03:40:54.581Z,15.80
2023-03-03T03:43:22.389Z,17.90
2023-03-03T03:45:49.297Z,16.60
2023-03-03T03:48:17.486Z,17.50
2023-03-03T03:50:47.994Z,19.00
2023-03-03T03:53:14.966Z,18.50
2023-03-03T03:55:41.393Z,17.70
2023-03-03T03:58:08.779Z,18.40
2023-03-03T04:00:35.264Z,17.63
2023-03-03T04:03:02.027Z,18.77
2023-03-03T04:05:28.598Z,17.92
2023-03-03T04:07:55.806Z,18.42
2023-03-03T04:10:22.180Z,16.80
2023-03-03T04:12:48.541Z,17.10
2023-03-03T04:15:15.607Z,18.27
2023-03-03T04:17:43.098Z,18.33
2023-03-03T04:20:13.641Z,19.15
2023-03-03T04:22:40.031Z,18.63
2023-03-03T04:25:07.295Z,18.67
2023-03-03T04:27:39.134Z,19.30
2023-03-03T04:30:07.127Z,20.42
2023-03-03T04:32:33.962Z,17.75
2023-03-03T04:35:08.088Z,18.83
2023-03-03T04:37:37.730Z,15.55
2023-03-03T04:40:07.748Z,16.48
2023-03-03T04:42:35.367Z,15.02
2023-03-03T04:45:03.187Z,15.20
2023-03-03T04:47:30.395Z,17.83
2023-03-03T04:49:56.933Z,29.20
2023-03-03T04:52:23.475Z,28.35
2023-03-03T04:54:49.894Z,25.95
2023-03-03T04:57:16.707Z,25.83
2023-03-03T04:59:43.702Z,20.75
2023-03-03T05:02:10.180Z,19.75
2023-03-03T05:04:36.513Z,21.65
2023-03-03T05:07:03.248Z,32.67
2023-03-03T05:09:29.609Z,38.63
2023-03-03T05:11:56.157Z,40.78
2023-03-03T05:14:22.847Z,44.38
2023-03-03T05:16:49.306Z,33.15
2023-03-03T05:19:15.639Z,33.95
2023-03-03T05:21:42.279Z,32.15
2023-03-03T05:24:12.966Z,32.25
2023-03-03T05:26:39.997Z,25.23
2023-03-03T05:29:06.905Z,35.75
2023-03-03T05:31:33.304Z,36.08
2023-03-03T05:33:59.638Z,35.95
2023-03-03T05:36:25.960Z,35.58
2023-03-03T05:38:52.283Z,32.03
2023-03-03T05:41:18.698Z,33.17
2023-03-03T05:43:45.227Z,38.10
2023-03-03T05:46:11.983Z,36.63
2023-03-03T05:48:38.309Z,26.80
2023-03-03T05:51:05.028Z,25.65
2023-03-03T05:53:31.320Z,27.80
2023-03-03T05:55:57.937Z,28.75
2023-03-03T05:58:24.241Z,32.08
2023-03-03T06:00:50.535Z,35.53
2023-03-03T06:03:17.065Z,35.75
2023-03-03T06:05:43.638Z,30.77
2023-03-03T06:08:10.099Z,22.52
2023-03-03T06:10:36.612Z,19.95
2023-03-03T06:13:05.836Z,18.63
2023-03-03T06:15:32.344Z,19.67
2023-03-03T06:17:58.710Z,18.25
2023-03-03T06:20:25.183Z,17.00
2023-03-03T06:22:51.502Z,17.92
2023-03-03T06:25:18.219Z,20.60
2023-03-03T06:27:44.538Z,23.35
2023-03-03T06:30:12.741Z,25.92
2023-03-03T06:32:39.474Z,23.73
2023-03-03T06:35:06.205Z,24.88
2023-03-03T06:37:32.516Z,27.95
2023-03-03T06:39:58.971Z,26.98
2023-03-03T06:42:25.266Z,30.45
2023-03-03T06:44:51.599Z,31.65
2023-03-03T06:47:17.953Z,31.27
2023-03-03T06:49:44.278Z,32.50
2023-03-03T06:52:28.546Z,33.13
2023-03-03T06:54:57.860Z,35.08
2023-03-03T06:57:29.993Z,36.35
2023-03-03T07:00:14.275Z,37.55
2023-03-03T07:02:41.263Z,38.20
2023-03-03T07:05:14.893Z,37.85
2023-03-03T07:07:41.287Z,36.97
2023-03-03T07:10:17.825Z,37.33
2023-03-03T07:12:44.169Z,38.95
2023-03-03T07:15:30.066Z,40.30
2023-03-03T07:17:59.659Z,38.75
2023-03-03T07:20:39.564Z,38.15
2023-03-03T07:23:23.104Z,36.30
2023-03-03T07:25:49.484Z,38.17
2023-03-03T07:28:24.296Z,37.45
2023-03-03T07:30:52.383Z,40.17
2023-03-03T07:33:29.168Z,37.20
2023-03-03T07:35:58.208Z,40.05
2023-03-03T07:38:35.389Z,39.10
2023-03-03T07:41:05.141Z,37.83
2023-03-03T07:43:48.397Z,38.78
2023-03-03T07:46:23.095Z,39.28
2023-03-03T07:48:51.915Z,40.65
2023-03-03T07:51:29.108Z,39.83
2023-03-03T07:54:29.038Z,38.83
2023-03-03T07:57:19.324Z,39.33
2023-03-03T08:00:01.157Z,39.70
2023-03-03T08:02:38.484Z,37.15
2023-03-03T08:05:32.215Z,36.95
2023-03-03T08:08:10.111Z,40.08
2023-03-03T08:10:44.527Z,40.55
2023-03-03T08:13:38.400Z,36.95
2023-03-03T08:16:07.873Z,36.95
2023-03-03T08:18:47.811Z,38.25
2023-03-03T08:21:16.327Z,36.63
2023-03-03T08:23:42.637Z,37.38
2023-03-03T08:26:09.552Z,36.05
2023-03-03T08:28:35.850Z,36.08
2023-03-03T08:31:15.267Z,36.55
2023-03-03T08:33:46.828Z,32.63
2023-03-03T08:36:13.540Z,32.58
2023-03-03T08:38:40.454Z,33.25
2023-03-03T08:41:06.842Z,35.55
2023-03-03T08:43:33.235Z,33.95
2023-03-03T08:46:01.906Z,37.28
2023-03-03T08:48:28.954Z,34.35
2023-03-03T08:50:55.497Z,37.08
2023-03-03T08:53:22.893Z,34.33
2023-03-03T08:55:49.623Z,34.45
2023-03-03T08:58:18.384Z,36.25
2023-03-03T09:00:48.325Z,33.08
2023-03-03T09:03:15.644Z,33.58
2023-03-03T09:05:42.063Z,32.83
2023-03-03T09:08:10.595Z,32.80
2023-03-03T09:10:36.930Z,34.85
2023-03-03T09:13:11.175Z,32.85
2023-03-03T09:15:38.469Z,31.75
2023-03-03T09:18:22.559Z,29.67
2023-03-03T09:20:50.728Z,30.77
2023-03-03T09:23:33.570Z,29.52
2023-03-03T09:26:30.247Z,29.88
2023-03-03T09:29:14.911Z,32.83
2023-03-03T09:32:08.628Z,30.38
2023-03-03T09:34:42.361Z,27.95
2023-03-03T09:37:47.188Z,26.77
2023-03-03T09:40:44.203Z,30.15
2023-03-03T09:43:37.345Z,27.15
2023-03-03T09:46:23.680Z,28.48
2023-03-03T09:49:01.913Z,25.55
2023-03-03T09:51:53.308Z,26.65
2023-03-03T09:57:27.360Z,24.88
2023-03-03T10:00:44.566Z,24.65
2023-03-03T10:03:39.022Z,26.13
2023-03-03T10:06:17.870Z,27.52
2023-03-03T10:08:52.799Z,26.95
2023-03-03T10:11:26.951Z,25.65
2023-03-03T10:14:04.169Z,25.95
2023-03-03T10:17:01.428Z,25.90
2023-03-03T10:19:39.940Z,27.02
2023-03-03T10:22:20.324Z,26.88
2023-03-03T10:25:02.577Z,25.47
2023-03-03T10:27:53.645Z,24.60
2023-03-03T10:30:39.829Z,24.65
2023-03-03T10:33:42.739Z,25.38
2023-03-03T10:36:31.021Z,25.50
2023-03-03T10:39:24.487Z,25.85
2023-03-03T10:42:09.542Z,24.92
2023-03-03T10:45:02.242Z,26.33
2023-03-03T10:47:40.080Z,23.42
2023-03-03T10:50:24.914Z,22.25
2023-03-03T10:53:03.500Z,23.67
2023-03-03T10:55:42.544Z,21.92
2023-03-03T10:58:24.022Z,21.48
2023-03-03T11:01:24.637Z,21.05
2023-03-03T11:04:10.030Z,21.50
2023-03-03T11:07:07.654Z,20.80
2023-03-03T11:09:50.638Z,21.83
2023-03-03T11:12:25.724Z,18.13
2023-03-03T11:15:03.678Z,22.50
2023-03-03T11:17:53.234Z,19.75
2023-03-03T11:20:29.043Z,18.90
2023-03-03T11:23:26.673Z,21.08
2023-03-03T11:26:09.105Z,18.63
2023-03-03T11:29:07.942Z,17.45
2023-03-03T11:32:27.285Z,17.58
2023-03-03T11:35:04.940Z,17.98
2023-03-03T11:38:05.774Z,18.02
2023-03-03T11:40:53.520Z,17.23
2023-03-03T11:43:38.053Z,17.77
2023-03-03T11:46:11.501Z,16.75
2023-03-03T11:48:47.395Z,16.00
2023-03-03T11:51:31.559Z,17.20
2023-03-03T11:54:03.967Z,16.75
2023-03-03T11:56:39.497Z,16.50
2023-03-03T11:59:13.567Z,15.25
2023-03-03T12:01:49.444Z,15.90
2023-03-03T12:04:22.198Z,16.83
2023-03-03T12:07:19.578Z,20.00
2023-03-03T12:09:53.477Z,17.75
2023-03-03T12:12:27.475Z,15.75
2023-03-03T12:15:15.612Z,15.75
2023-03-03T12:18:08.518Z,15.95
2023-03-03T12:21:16.143Z,16.27
2023-03-03T12:23:58.542Z,18.20
2023-03-03T12:26:32.413Z,16.52
2023-03-03T12:29:06.899Z,16.60
2023-03-03T12:32:00.472Z,17.25
2023-03-03T12:34:39.254Z,17.85
2023-03-03T12:37:21.893Z,17.02
2023-03-03T12:39:50.929Z,16.23
2023-03-03T12:42:49.676Z,15.40
2023-03-03T12:45:34.751Z,15.30
2023-03-03T12:48:13.280Z,14.70
2023-03-03T12:50:48.501Z,16.15
2023-03-03T12:53:26.943Z,17.50
2023-03-03T12:55:59.808Z,16.55
2023-03-03T12:58:35.093Z,15.70
2023-03-03T13:01:22.649Z,19.10
2023-03-03T13:03:57.902Z,17.20
2023-03-03T13:06:31.033Z,15.45
2023-03-03T13:09:21.543Z,15.85
2023-03-03T13:12:03.414Z,15.40
2023-03-03T13:14:41.605Z,14.48
2023-03-03T13:17:17.727Z,14.85
2023-03-03T13:19:51.228Z,15.50
2023-03-03T13:22:46.583Z,15.90
2023-03-03T13:25:36.748Z,14.90
2023-03-03T13:28:14.035Z,14.90
2023-03-03T13:30:56.399Z,15.45
2023-03-03T13:33:22.711Z,14.95
2023-03-03T13:35:54.953Z,15.93
2023-03-03T13:38:32.546Z,15.85
2023-03-03T13:41:06.808Z,15.57
2023-03-03T13:43:44.404Z,15.63
2023-03-03T13:46:32.152Z,16.73
2023-03-03T13:49:19.893Z,16.08
2023-03-03T13:52:09.743Z,15.25
2023-03-03T13:55:08.616Z,14.88
2023-03-03T13:58:16.551Z,15.52
2023-03-03T14:00:42.838Z,16.60
2023-03-03T14:03:09.085Z,14.90
2023-03-03T14:05:37.203Z,24.95
2023-03-03T14:08:31.013Z,18.05
2023-03-03T14:11:12.176Z,18.38
2023-03-03T14:13:47.707Z,16.75
2023-03-03T14:16:22.679Z,17.70
2023-03-03T14:19:01.588Z,17.00
2023-03-03T14:21:47.724Z,16.30
2023-03-03T14:24:19.304Z,17.83
2023-03-03T14:27:00.073Z,19.27
2023-03-03T14:29:26.332Z,19.90
2023-03-03T14:31:56.694Z,21.10
2023-03-03T14:34:22.967Z,21.90
2023-03-03T14:36:53.846Z,20.13
2023-03-03T14:39:34.885Z,21.73
2023-03-03T14:42:05.247Z,25.30
2023-03-03T14:44:38.346Z,24.42
2023-03-03T14:47:10.370Z,25.92
2023-03-03T14:49:38.392Z,26.65
2023-03-03T14:52:17.305Z,26.90
2023-03-03T14:54:46.719Z,25.58
2023-03-03T14:57:45.842Z,25.90
2023-03-03T15:00:12.179Z,26.25
2023-03-03T15:02:43.456Z,26.58
2023-03-03T15:05:16.168Z,25.48
2023-03-03T15:07:42.849Z,24.58
2023-03-03T15:10:10.925Z,26.65
2023-03-03T15:12:40.499Z,25.33
2023-03-03T15:15:08.203Z,26.65
2023-03-03T15:17:57.209Z,25.38
2023-03-03T15:20:35.573Z,24.60
2023-03-03T15:23:39.833Z,24.55
2023-03-03T15:26:16.190Z,26.33
2023-03-03T15:28:54.508Z,26.80
2023-03-03T15:31:51.870Z,25.30
2023-03-03T15:34:54.075Z,26.13
2023-03-03T15:37:57.726Z,25.90
2023-03-03T15:40:30.358Z,30.63
2023-03-03T15:43:26.307Z,31.55
2023-03-03T15:46:06.238Z,30.88
2023-03-03T15:48:46.022Z,26.25
2023-03-03T15:51:30.554Z,25.13
2023-03-03T15:54:22.465Z,25.90
2023-03-03T15:56:51.577Z,24.80
2023-03-03T15:59:32.430Z,25.23
2023-03-03T16:02:16.059Z,22.23
2023-03-03T16:05:08.214Z,23.95
2023-03-03T16:07:46.372Z,23.05
2023-03-03T16:10:21.487Z,22.30
2023-03-03T16:12:55.464Z,24.23
2023-03-03T16:15:34.422Z,23.52
2023-03-03T16:18:39.361Z,22.70
2023-03-03T16:21:33.312Z,22.95
2023-03-03T16:24:29.394Z,22.70
2023-03-03T16:27:16.684Z,24.20
2023-03-03T16:30:08.428Z,21.65
2023-03-03T16:32:41.396Z,23.10
2023-03-03T16:35:24.271Z,25.80
2023-03-03T16:38:19.375Z,25.77
2023-03-03T16:40:53.675Z,25.20
2023-03-03T16:43:43.099Z,27.05
2023-03-03T16:46:42.718Z,23.15
2023-03-03T16:49:30.148Z,22.52
2023-03-03T16:52:07.297Z,21.80
2023-03-03T16:54:54.121Z,21.98
2023-03-03T16:57:26.351Z,22.73
2023-03-03T16:59:58.999Z,22.27
2023-03-03T17:02:52.882Z,21.08
2023-03-03T17:05:31.342Z,24.05
2023-03-03T17:08:16.657Z,23.20
2023-03-03T17:10:50.211Z,21.85
2023-03-03T17:13:49.107Z,24.10
2023-03-03T17:16:51.901Z,22.60
2023-03-03T17:19:40.168Z,22.60
2023-03-03T17:22:20.265Z,23.05
2023-03-03T17:24:52.755Z,25.77
2023-03-03T17:27:45.829Z,26.85
2023-03-03T17:30:27.220Z,24.83
2023-03-03T17:33:09.230Z,25.65
2023-03-03T17:35:40.111Z,31.50
2023-03-03T17:38:18.406Z,35.67
2023-03-03T17:41:09.534Z,30.90
2023-03-03T17:43:51.216Z,31.02
2023-03-03T17:46:39.915Z,32.45
2023-03-03T17:49:18.330Z,30.35
2023-03-03T17:52:14.690Z,31.00
2023-03-03T17:55:04.386Z,30.90
2023-03-03T17:57:49.538Z,34.58
2023-03-03T18:00:31.049Z,34.10
2023-03-03T18:03:17.545Z,33.03
2023-03-03T18:06:37.282Z,34.67
2023-03-03T18:09:16.765Z,33.00
2023-03-03T18:12:00.063Z,35.13
2023-03-03T18:14:49.385Z,34.67
2023-03-03T18:17:28.703Z,33.30
2023-03-03T18:20:12.554Z,33.10
2023-03-03T18:22:46.716Z,33.58
2023-03-03T18:25:16.476Z,34.25
2023-03-03T18:27:45.484Z,35.70
2023-03-03T18:30:17.688Z,34.85
2023-03-03T18:33:00.870Z,33.30
2023-03-03T18:35:33.223Z,33.40
2023-03-03T18:38:17.950Z,34.88
2023-03-03T18:40:56.355Z,32.83
2023-03-03T18:43:44.597Z,33.97
2023-03-03T18:46:20.207Z,33.95
2023-03-03T18:49:09.928Z,42.88
2023-03-03T18:51:39.280Z,43.15
2023-03-03T18:54:26.130Z,38.33
2023-03-03T18:56:52.415Z,45.63
2023-03-03T18:59:31.020Z,38.80
2023-03-03T19:02:12.737Z,39.80
2023-03-03T19:04:43.136Z,42.33
2023-03-03T19:07:39.779Z,46.13
2023-03-03T19:10:44.557Z,44.80
2023-03-03T19:13:32.813Z,47.58
2023-03-03T19:16:04.122Z,65.93
2023-03-03T19:18:42.709Z,54.97
2023-03-03T19:21:12.173Z,42.53
2023-03-03T19:24:00.433Z,55.10
2023-03-03T19:26:30.187Z,48.80
2023-03-03T19:29:36.554Z,50.58
2023-03-03T19:32:18.548Z,43.13
2023-03-03T19:35:06.250Z,39.10
2023-03-03T19:38:04.261Z,39.63
2023-03-03T19:40:41.355Z,42.25
2023-03-03T19:43:17.394Z,40.22
2023-03-03T19:46:06.574Z,40.30
2023-03-03T19:48:44.994Z,40.75
2023-03-03T19:51:25.406Z,40.15
2023-03-03T19:54:15.026Z,40.43
2023-03-03T19:56:49.942Z,41.42
2023-03-03T19:59:26.945Z,41.58
2023-03-03T20:02:13.469Z,43.75
2023-03-03T20:04:57.999Z,42.40
2023-03-03T20:07:29.820Z,40.13
2023-03-03T20:10:06.190Z,42.72
2023-03-03T20:12:59.649Z,43.63
2023-03-03T20:15:42.107Z,40.88
2023-03-03T20:18:25.941Z,40.45
2023-03-03T20:21:13.505Z,41.20
2023-03-03T20:23:54.745Z,40.63
2023-03-03T20:26:39.347Z,40.72
2023-03-03T20:29:27.080Z,39.30
2023-03-03T20:32:12.630Z,38.85
2023-03-03T20:35:05.246Z,38.85
2023-03-03T20:37:57.616Z,41.33
2023-03-03T20:40:50.605Z,39.05
2023-03-03T20:43:54.324Z,38.83
2023-03-03T20:46:27.442Z,39.22
2023-03-03T20:49:31.531Z,42.47
2023-03-03T20:52:32.126Z,42.70
2023-03-03T20:55:19.218Z,45.83
2023-03-03T20:57:56.648Z,49.45
2023-03-03T21:00:38.659Z,51.53
2023-03-03T21:03:20.811Z,46.58
2023-03-03T21:05:57.881Z,40.55
2023-03-03T21:08:53.756Z,45.25
2023-03-03T21:11:42.087Z,41.05
2023-03-03T21:14:30.908Z,48.00
2023-03-03T21:17:02.376Z,53.05
2023-03-03T21:19:33.846Z,47.72
2023-03-03T21:22:02.383Z,48.40
2023-03-03T21:24:49.305Z,64.60
2023-03-03T21:27:32.306Z,63.88
2023-03-03T21:30:12.802Z,63.53
2023-03-03T21:32:47.918Z,59.17
2023-03-03T21:35:21.968Z,65.70
2023-03-03T21:37:52.922Z,59.60
2023-03-03T21:40:26.460Z,64.05
2023-03-03T21:42:55.198Z,61.45
2023-03-03T21:45:21.712Z,50.92
2023-03-03T21:47:48.259Z,57.85
2023-03-03T21:50:14.920Z,55.03
2023-03-03T21:52:41.286Z,54.20
2023-03-03T21:55:08.500Z,55.72
2023-03-03T21:57:37.706Z,56.47
2023-03-03T22:00:06.357Z,54.90
2023-03-03T22:02:34.433Z,48.55
2023-03-03T22:05:03.028Z,40.17
2023-03-03T22:07:29.880Z,44.28
2023-03-03T22:09:56.266Z,41.38
2023-03-03T22:12:22.600Z,38.00
2023-03-03T22:14:49.275Z,39.30
2023-03-03T22:17:15.594Z,40.78
2023-03-03T22:19:41.881Z,39.67
2023-03-03T22:22:08.194Z,39.35
2023-03-03T22:24:34.503Z,41.88
2023-03-03T22:27:00.792Z,42.45
2023-03-03T22:29:27.194Z,42.97
2023-03-03T22:31:53.537Z,39.25
2023-03-03T22:34:19.917Z,38.83
2023-03-03T22:36:46.246Z,37.83
2023-03-03T22:39:12.568Z,41.33
2023-03-03T22:41:38.845Z,41.45
2023-03-03T22:44:05.235Z,45.28
2023-03-03T22:46:31.608Z,48.92
2023-03-03T22:48:57.954Z,46.88
2023-03-03T22:51:26.004Z,43.38
2023-03-03T22:53:52.318Z,43.50
2023-03-03T22:56:18.633Z,48.47
2023-03-03T22:58:44.998Z,44.30
2023-03-03T23:01:11.288Z,43.42
2023-03-03T23:03:37.664Z,43.53
2023-03-03T23:06:04.372Z,42.47
2023-03-03T23:08:30.693Z,43.10
2023-03-03T23:10:57.039Z,40.65
2023-03-03T23:13:25.017Z,39.13
2023-03-03T23:15:51.360Z,38.90
2023-03-03T23:18:17.683Z,39.45
2023-03-03T23:20:45.812Z,40.47
2023-03-03T23:23:12.463Z,43.67
2023-03-03T23:25:38.813Z,44.03
2023-03-03T23:28:05.452Z,42.53
2023-03-03T23:30:31.779Z,37.42
2023-03-03T23:32:58.096Z,41.13
2023-03-03T23:35:24.553Z,38.35
2023-03-03T23:37:50.892Z,40.15
2023-03-03T23:40:17.336Z,39.08
2023-03-03T23:42:44.182Z,43.22
2023-03-03T23:45:11.877Z,44.78
2023-03-03T23:47:38.322Z,42.58
2023-03-03T23:50:05.239Z,43.97
2023-03-03T23:52:31.915Z,44.42
2023-03-03T23:54:58.372Z,43.65
2023-03-03T23:57:24.854Z,44.80
2023-03-03T23:59:51.216Z,50.08
